Terminal Aerodrome Forecast
Issued by NWS

Home | Current Version | Previous Version | Text Only | Print | Product List | Glossary On
Versions: 1 2 3 4 5 6 7 8 9 10 11 12 13 14 15 16 17 18 19 20
951
FTAK31 PAJN 162331
TAFAJN
TAF
PAJN 162331Z 1700/1724 08008KT P6SM -SHRA SCT018 OVC035
      TEMPO 1700/1702 3SM SHRA BR BKN018
     FM170200 12008KT P6SM -SHRA BKN025 OVC035
     FM170600 10008KT P6SM -SHRA SCT025 OVC035
     FM171800 12010KT P6SM -SHRA BKN025 OVC035=

USA.gov is the U.S. government's official web portal to all federal, state and local government web resources and services.